Sanford, NC

1:34 PM EST on January 31, 2015 (GMT -0500)
Reserve at Carthage Colonies | Change Station
CLOSE
Current Station
Personal Weather Station
Location: Sanford, NC
Elevation: 404 ft
Nearby Weather Stations

Elev 404 ft 35.45 °N, 79.20 °W | Updated 14 minutes ago

Clear
Clear
47.7 °F
Feels Like 45 °F
N
5.3
Wind Variable Wind from NNW

Today
High -- | Low -- °F
--% Chance of Precip.
Yesterday
High -- | Low -- °F
Precip. -- in
7:17 AM 5:43 PM
Waxing Gibbous, 91% visible
Pressure 30.34 in
Visibility 10.0 miles
Clouds Clear
Windchill 45 °F
Dew Point 9 °F
Humidity 20%
Rainfall 0.00 in
Snow Depth Not available.
UV 4 out of 12
Pollen 3.10 out of 12
Air Quality Not available.
Flu Activity Not available.
METAR KTTA 311815Z AUTO 30005KT 10SM CLR 08/M16 A3034 RMK AO2 T00751160

More Conditions Fewer Conditions

Pressure 30.34 in
Visibility 10.0 miles
Clouds Clear
Windchill 45 °F
Dew Point 9 °F
Humidity 20%
Rainfall 0.00 in
Snow Depth Not available.
UV 4 out of 12
Pollen 3.10 out of 12
Air Quality Not available.
Flu Activity Not available.
METAR KTTA 311815Z AUTO 30005KT 10SM CLR 08/M16 A3034 RMK AO2 T00751160

More Conditions Fewer Conditions

10-Day Weather Forecast

Almanac

Astronomy

Jan. 31, 2015 Rise Set
Actual Time
Civil Twilight
Nautical Twilight
Astronomical Twilight
Moon
Length of Visible Light
Length of Day
Tomorrow will be .
, % of the Moon is Illuminated

Today's Extremes

State Highs State Lows

Community

WunderPhotos

Upload Photos

1,792,143 photos uploaded!

WunderBlogs® & News

Nearby

Air Quality

  Air Quality AQ Index Pollutant
Not available.

Snow Depth

Station Depth Elevation

Earthquake Activity

City Distance Mag. Time & Date
Minimum magnitude displayed is 2.5.

Coastal Water Temperatures

Place Temperature

Nearby Weather Stations